Holcombville, New York
Current Conditions -  °F | °C
As of 1:53 PM on Saturday 25 Oct 2014 (Local Time) from KGFL Reporting Station
Clear Clear  
Wind Chill: 15°   Ceiling: Unl
Heat Index: 15°   Visibility: 10mi
Dew Point:   Wind: 9mph
Humidity: 64%   Direction: 170°S
Pressure: 29.63"   Gusts: NA
Location:  43.7289°N, 73.9027°W
Report Text: KGFL 251753Z AUTO 17008KT 10SM CLR 15/08 A2963 RMK AO2 PRESFR SLP038 T01500083 10150 20050 58046
Loading
Personal Weather Stations






























Interactive Weather Map
Tropical Storm Tracking
New forecast layout! Learn more

10-Day Weather Forecast

Advertisements
Track Severe Weather on mobile